Time;durP1;ratioP1;P1;durP2;ratioP2;P2;SDS_P1;SDS_P2;PMS_P1;PMS_P2;Temp;Humidity;BMP_temperature;BMP_pressure;BME280_temperature;BME280_humidity;BME280_pressure;Samples;Min_cycle;Max_cycle;Signal;HPM_P1;HPM_P2
2022/01/13 00:01:41;;;;;;;60.37;22.80;;;4.50;99.90;;;;;;4995367;28;20176;-78
2022/01/13 00:04:12;;;;;;;53.37;21.43;;;4.50;99.90;;;;;;4978836;28;20990;-78
2022/01/13 00:06:38;;;;;;;56.70;22.00;;;4.50;99.90;;;;;;4995726;28;20202;-78
2022/01/13 00:09:05;;;;;;;59.07;22.60;;;4.50;99.90;;;;;;4994801;28;20219;-78
2022/01/13 00:11:30;;;;;;;57.57;21.10;;;4.50;99.90;;;;;;4980643;28;20631;-78
2022/01/13 00:19:31;;;;;;;57.73;21.50;;;4.50;99.90;;;;;;4992649;28;20207;-77
2022/01/13 00:21:56;;;;;;;61.70;22.53;;;4.50;99.90;;;;;;4989873;28;20179;-78
2022/01/13 00:24:25;;;;;;;56.63;22.20;;;4.50;99.90;;;;;;4986051;28;20180;-77
2022/01/13 00:27:00;;;;;;;56.73;21.97;;;4.50;99.90;;;;;;4974525;28;20315;-77
2022/01/13 00:29:31;;;;;;;57.13;20.43;;;4.40;99.90;;;;;;5008824;28;20282;-77
2022/01/13 00:31:56;;;;;;;59.00;22.50;;;4.50;99.90;;;;;;4992269;28;20180;-77
2022/01/13 00:34:24;;;;;;;59.80;22.87;;;4.50;99.90;;;;;;4990573;28;20183;-77
2022/01/13 00:37:01;;;;;;;61.90;22.07;;;4.40;99.90;;;;;;4992870;28;20184;-78
2022/01/13 00:39:28;;;;;;;63.13;23.73;;;4.50;99.90;;;;;;4976287;28;20203;-79
2022/01/13 00:41:57;;;;;;;66.13;22.30;;;4.50;99.90;;;;;;4991411;28;20167;-78
2022/01/13 00:44:35;;;;;;;72.70;24.53;;;4.50;99.90;;;;;;4993231;28;20620;-77
2022/01/13 00:47:01;;;;;;;62.00;22.10;;;4.50;99.90;;;;;;4985572;28;20187;-78
2022/01/13 00:49:27;;;;;;;71.60;23.77;;;4.60;99.90;;;;;;4993332;28;20199;-78
2022/01/13 00:51:54;;;;;;;71.50;24.43;;;4.60;99.90;;;;;;4972509;28;20211;-78
2022/01/13 00:54:20;;;;;;;66.87;24.30;;;4.50;99.90;;;;;;4977017;28;20184;-78
2022/01/13 00:56:46;;;;;;;63.90;23.47;;;4.60;99.90;;;;;;4993413;28;20175;-78
2022/01/13 00:59:14;;;;;;;66.13;24.07;;;4.60;99.90;;;;;;4976581;28;20207;-77
2022/01/13 01:01:45;;;;;;;61.80;22.87;;;4.60;99.90;;;;;;4991370;28;20179;-78
2022/01/13 01:04:11;;;;;;;64.67;23.80;;;4.60;99.90;;;;;;4992549;28;20508;-78
2022/01/13 01:06:38;;;;;;;57.13;21.77;;;4.60;99.90;;;;;;4975999;28;20186;-77
2022/01/13 01:09:05;;;;;;;65.93;24.03;;;4.60;99.90;;;;;;4992774;28;20187;-78
2022/01/13 01:11:35;;;;;;;70.23;23.43;;;4.70;99.90;;;;;;4975579;28;20185;-78
2022/01/13 01:14:03;;;;;;;67.57;22.83;;;4.70;99.90;;;;;;4981315;28;20210;-77
2022/01/13 01:16:39;;;;;;;71.03;24.07;;;4.70;99.90;;;;;;4975663;28;20219;-78
2022/01/13 01:19:07;;;;;;;70.53;23.70;;;4.70;99.90;;;;;;4991555;28;20206;-77
2022/01/13 01:26:51;;;;;;;70.90;25.70;;;4.70;99.90;;;;;;4992119;28;20258;-78
2022/01/13 01:29:41;;;;;;;66.17;24.33;;;4.70;99.90;;;;;;4968619;28;20559;-78
2022/01/13 01:32:11;;;;;;;79.47;25.17;;;4.70;99.90;;;;;;4979629;28;20535;-77
2022/01/13 01:35:13;;;;;;;82.27;26.50;;;4.60;99.90;;;;;;4975104;28;20174;-77
2022/01/13 01:37:30;;;;;;;72.93;25.60;;;4.60;99.90;;;;;;4990810;28;20207;-79
2022/01/13 01:40:01;;;;;;;72.90;25.20;;;4.70;99.90;;;;;;4992164;28;20238;-77
2022/01/13 01:42:28;;;;;;;86.87;27.17;;;4.70;99.90;;;;;;4982120;28;20267;-78
2022/01/13 01:44:56;;;;;;;88.83;27.43;;;4.60;99.90;;;;;;4992486;28;20171;-77
2022/01/13 01:47:27;;;;;;;81.03;26.37;;;4.60;99.90;;;;;;4970128;28;20551;-77
2022/01/13 01:49:57;;;;;;;86.03;27.33;;;4.60;99.90;;;;;;4993955;28;20249;-78
2022/01/13 01:52:23;;;;;;;80.97;27.00;;;4.70;99.90;;;;;;4979454;28;20222;-77
2022/01/13 01:54:52;;;;;;;79.23;26.80;;;4.70;99.90;;;;;;4990595;28;20193;-78
2022/01/13 01:57:20;;;;;;;77.77;25.17;;;4.70;99.90;;;;;;4989663;28;20179;-77
2022/01/13 01:59:45;;;;;;;79.23;25.87;;;4.70;99.90;;;;;;4993370;28;20262;-78
2022/01/13 02:02:13;;;;;;;77.37;25.63;;;4.70;99.90;;;;;;4991658;28;20179;-78
2022/01/13 02:04:45;;;;;;;83.43;28.30;;;4.70;99.90;;;;;;4992443;28;20179;-77
2022/01/13 02:07:14;;;;;;;80.13;26.63;;;4.70;99.90;;;;;;4992147;28;20183;-78
2022/01/13 02:09:44;;;;;;;83.30;27.63;;;4.70;99.90;;;;;;4992203;28;20195;-78
2022/01/13 02:17:59;;;;;;;80.27;27.03;;;4.70;99.90;;;;;;5040584;28;20239;-85
2022/01/13 02:20:52;;;;;;;84.43;27.00;;;4.60;99.90;;;;;;5015480;28;20175;-86
2022/01/13 02:23:34;;;;;;;89.97;27.90;;;4.70;99.90;;;;;;5008816;28;20175;-85
2022/01/13 02:26:07;;;;;;;87.43;27.60;;;4.60;99.90;;;;;;5020166;28;20177;-86
2022/01/13 02:28:39;;;;;;;98.80;28.40;;;4.60;99.90;;;;;;5034646;28;20200;-85
2022/01/13 02:31:06;;;;;;;79.80;27.47;;;4.70;99.90;;;;;;5014308;28;20337;-85
2022/01/13 02:33:35;;;;;;;92.33;27.77;;;4.80;99.90;;;;;;5020674;28;20202;-85
2022/01/13 02:36:04;;;;;;;83.33;25.80;;;4.70;99.90;;;;;;5028878;28;20181;-85
2022/01/13 02:38:30;;;;;;;93.27;27.93;;;4.80;99.90;;;;;;5024843;28;20207;-86
2022/01/13 02:40:58;;;;;;;94.50;27.87;;;4.80;99.90;;;;;;5020882;28;20211;-86
2022/01/13 02:43:25;;;;;;;86.27;28.43;;;4.80;99.90;;;;;;5024012;28;20169;-86
2022/01/13 02:46:05;;;;;;;85.67;27.83;;;4.80;99.90;;;;;;5015102;28;20217;-85
2022/01/13 02:48:35;;;;;;;104.87;28.30;;;4.80;99.90;;;;;;5026730;28;20630;-85
2022/01/13 02:51:01;;;;;;;87.70;28.57;;;4.80;99.90;;;;;;5018290;28;20278;-86
2022/01/13 02:53:29;;;;;;;90.87;29.80;;;4.70;99.90;;;;;;5021355;28;20178;-85
2022/01/13 02:56:06;;;;;;;92.73;29.80;;;4.80;99.90;;;;;;5018715;28;20185;-85
2022/01/13 02:58:35;;;;;;;87.33;27.17;;;4.80;99.90;;;;;;5020862;28;20207;-86
2022/01/13 03:01:02;;;;;;;91.37;28.50;;;4.80;99.90;;;;;;5025148;28;20213;-85
2022/01/13 03:03:30;;;;;;;90.57;28.70;;;4.80;99.90;;;;;;5022251;28;20177;-86
2022/01/13 03:05:56;;;;;;;97.53;28.67;;;4.90;99.90;;;;;;5021987;28;20189;-86
2022/01/13 03:08:25;;;;;;;81.27;27.80;;;4.80;99.90;;;;;;5023921;28;20175;-85
2022/01/13 03:10:52;;;;;;;94.23;27.40;;;4.80;99.90;;;;;;5042883;28;20218;-85
2022/01/13 03:13:22;;;;;;;85.33;28.57;;;4.80;99.90;;;;;;5022108;28;20540;-86
2022/01/13 03:15:48;;;;;;;86.73;26.13;;;4.80;99.90;;;;;;5019043;28;20204;-86
2022/01/13 03:18:13;;;;;;;82.00;27.37;;;4.90;99.90;;;;;;5037331;28;20201;-87
2022/01/13 03:20:39;;;;;;;82.80;25.73;;;4.90;99.90;;;;;;5019706;28;20190;-87
2022/01/13 03:23:06;;;;;;;82.20;28.30;;;4.90;99.90;;;;;;5012181;28;20182;-85
2022/01/13 03:25:32;;;;;;;78.77;25.17;;;4.90;99.90;;;;;;5020221;28;20173;-86
2022/01/13 03:28:05;;;;;;;75.57;26.40;;;4.90;99.90;;;;;;5017262;28;20237;-85
2022/01/13 03:30:31;;;;;;;86.17;27.50;;;4.90;99.90;;;;;;5024858;28;20182;-84
2022/01/13 03:33:00;;;;;;;80.90;26.20;;;5.00;99.90;;;;;;5016774;28;20235;-85
2022/01/13 03:35:27;;;;;;;74.67;26.80;;;4.90;99.90;;;;;;5019574;28;20186;-85
2022/01/13 03:37:53;;;;;;;76.77;25.57;;;4.90;99.90;;;;;;5016506;28;20202;-87
2022/01/13 03:40:19;;;;;;;77.70;26.10;;;4.90;99.90;;;;;;5016651;28;20182;-84
2022/01/13 03:42:48;;;;;;;76.60;25.73;;;5.00;99.90;;;;;;5016947;28;20633;-85
2022/01/13 03:45:22;;;;;;;75.07;26.97;;;5.00;99.90;;;;;;5017886;28;20177;-85
2022/01/13 03:47:50;;;;;;;71.87;24.23;;;5.00;99.90;;;;;;5035396;28;20182;-84
2022/01/13 03:50:18;;;;;;;74.90;25.80;;;5.00;99.90;;;;;;5025584;28;20173;-87
2022/01/13 03:53:02;;;;;;;64.83;24.30;;;5.10;99.90;;;;;;5019052;28;20185;-85
2022/01/13 03:55:40;;;;;;;68.13;24.73;;;5.10;99.90;;;;;;5037332;28;20173;-85
2022/01/13 03:58:33;;;;;;;63.80;23.40;;;5.10;99.90;;;;;;5035501;28;20200;-86
2022/01/13 04:01:37;;;;;;;63.03;22.73;;;5.10;99.90;;;;;;5028262;28;20193;-85
2022/01/13 04:04:03;;;;;;;65.33;22.40;;;5.20;99.90;;;;;;5018724;28;20188;-85
2022/01/13 04:06:39;;;;;;;57.40;22.13;;;5.20;99.90;;;;;;5020812;28;20171;-83
2022/01/13 04:09:29;;;;;;;66.70;22.47;;;5.20;99.90;;;;;;5018771;28;20269;-85
2022/01/13 04:11:55;;;;;;;62.13;24.77;;;5.20;99.90;;;;;;5035369;28;20213;-84
2022/01/13 04:14:28;;;;;;;69.27;23.17;;;5.20;99.90;;;;;;5016008;28;20190;-83
2022/01/13 04:16:55;;;;;;;62.30;23.27;;;5.20;99.90;;;;;;5015393;28;20170;-83
2022/01/13 04:19:21;;;;;;;71.97;25.60;;;5.20;99.90;;;;;;5017907;28;20213;-83
2022/01/13 04:21:47;;;;;;;68.93;25.47;;;5.20;99.90;;;;;;5020802;28;20195;-84
2022/01/13 04:24:13;;;;;;;74.23;25.07;;;5.20;99.90;;;;;;5016297;28;20506;-83
2022/01/13 04:26:41;;;;;;;67.47;25.53;;;5.20;99.90;;;;;;5017296;28;20188;-83
2022/01/13 04:29:30;;;;;;;59.87;24.50;;;5.10;99.90;;;;;;5017953;28;20197;-85
2022/01/13 04:31:57;;;;;;;61.67;24.27;;;5.20;99.90;;;;;;5016974;28;20203;-87
2022/01/13 04:34:30;;;;;;;63.07;23.83;;;5.20;99.90;;;;;;5027090;28;20212;-86
2022/01/13 04:36:59;;;;;;;63.93;24.00;;;5.20;99.90;;;;;;5027713;28;20186;-86
2022/01/13 04:39:29;;;;;;;64.47;23.43;;;5.20;99.90;;;;;;5019151;28;20202;-85
2022/01/13 04:41:56;;;;;;;61.00;22.53;;;5.20;99.90;;;;;;5016083;28;20199;-86
2022/01/13 04:44:24;;;;;;;56.50;22.80;;;5.20;99.90;;;;;;5023286;28;20177;-87
2022/01/13 04:46:52;;;;;;;61.90;24.13;;;5.20;99.90;;;;;;5026097;28;20169;-84
2022/01/13 04:49:19;;;;;;;62.03;23.97;;;5.20;99.90;;;;;;5014580;28;20170;-85
2022/01/13 04:51:47;;;;;;;59.13;22.23;;;5.20;99.90;;;;;;5020866;28;20265;-85
2022/01/13 04:54:13;;;;;;;52.87;21.97;;;5.20;99.90;;;;;;5013303;28;20251;-85
2022/01/13 04:56:52;;;;;;;55.80;21.40;;;5.20;99.90;;;;;;5026905;28;20181;-86
2022/01/13 04:59:18;;;;;;;56.80;21.97;;;5.20;99.90;;;;;;5024398;28;20649;-87
2022/01/13 05:01:44;;;;;;;54.23;21.00;;;5.20;99.90;;;;;;5023882;28;20216;-86
2022/01/13 05:04:10;;;;;;;52.00;22.13;;;5.20;99.90;;;;;;5015832;28;20180;-86
2022/01/13 05:06:36;;;;;;;60.90;23.67;;;5.20;99.90;;;;;;5019399;28;20189;-86
2022/01/13 05:09:03;;;;;;;55.80;21.77;;;5.20;99.90;;;;;;5019212;28;20181;-85
2022/01/13 05:11:29;;;;;;;56.23;20.87;;;5.20;99.90;;;;;;5011965;28;20201;-85
2022/01/13 05:13:55;;;;;;;55.90;21.87;;;5.20;99.90;;;;;;5021664;28;20204;-85
2022/01/13 05:16:25;;;;;;;49.47;20.63;;;5.20;99.90;;;;;;5011806;28;20178;-85
2022/01/13 05:19:11;;;;;;;58.30;22.23;;;5.20;99.90;;;;;;5022591;28;20198;-86
2022/01/13 05:24:10;;;;;;;56.80;21.27;;;5.20;99.90;;;;;;5035420;28;20241;-85
2022/01/13 05:26:37;;;;;;;57.70;21.23;;;5.30;99.90;;;;;;5015514;28;20190;-84
2022/01/13 05:29:04;;;;;;;57.63;21.93;;;5.30;99.90;;;;;;5023445;28;20184;-85
2022/01/13 05:31:30;;;;;;;57.77;21.67;;;5.30;99.90;;;;;;5025043;28;20205;-86
2022/01/13 05:33:56;;;;;;;49.90;20.53;;;5.30;99.90;;;;;;5022123;28;20197;-85
2022/01/13 05:36:24;;;;;;;55.83;21.83;;;5.30;99.90;;;;;;5025186;28;20174;-85
2022/01/13 05:38:51;;;;;;;53.77;21.17;;;5.40;99.90;;;;;;5027373;28;20291;-85
2022/01/13 05:41:17;;;;;;;50.67;21.73;;;5.40;99.90;;;;;;5032354;28;20197;-86
2022/01/13 05:43:45;;;;;;;50.17;21.70;;;5.40;99.90;;;;;;5027810;28;20633;-85
2022/01/13 05:46:11;;;;;;;57.27;21.77;;;5.40;99.90;;;;;;5021782;28;20182;-86
2022/01/13 05:48:37;;;;;;;52.07;21.03;;;5.40;99.90;;;;;;5018158;28;20179;-86
2022/01/13 05:51:03;;;;;;;53.87;22.10;;;5.40;99.90;;;;;;5030276;28;20264;-86
2022/01/13 05:53:28;;;;;;;53.07;22.20;;;5.50;99.90;;;;;;5018638;28;20198;-85
2022/01/13 05:55:54;;;;;;;48.93;20.87;;;5.50;99.90;;;;;;5017821;28;20193;-86
2022/01/13 05:58:20;;;;;;;45.73;20.20;;;5.50;99.90;;;;;;5020231;28;20203;-85
2022/01/13 06:00:46;;;;;;;54.43;21.23;;;5.50;99.90;;;;;;5026730;28;20200;-85
2022/01/13 06:03:12;;;;;;;50.23;21.83;;;5.50;99.90;;;;;;5022777;28;20201;-85
2022/01/13 06:05:38;;;;;;;55.90;21.57;;;5.60;99.90;;;;;;5015835;28;20177;-85
2022/01/13 06:08:06;;;;;;;47.97;20.43;;;5.60;99.90;;;;;;5026546;28;20173;-86
2022/01/13 06:10:32;;;;;;;52.33;21.00;;;5.60;99.90;;;;;;5021428;28;20165;-86
2022/01/13 06:12:58;;;;;;;53.90;22.40;;;5.60;99.90;;;;;;5015936;28;20693;-86
2022/01/13 06:15:25;;;;;;;48.00;20.97;;;5.60;99.90;;;;;;5009926;28;20197;-86
2022/01/13 06:17:54;;;;;;;60.90;21.43;;;5.60;99.90;;;;;;5028015;28;20215;-86
2022/01/13 06:20:20;;;;;;;50.70;21.33;;;5.60;99.90;;;;;;5022910;28;20162;-85
2022/01/13 06:22:48;;;;;;;51.97;22.57;;;5.60;99.90;;;;;;5028338;28;20299;-86
2022/01/13 06:25:15;;;;;;;55.57;21.70;;;5.70;99.90;;;;;;5034915;28;20174;-85
2022/01/13 06:27:41;;;;;;;58.77;21.73;;;5.60;99.90;;;;;;5030865;28;20180;-85
2022/01/13 06:30:10;;;;;;;53.03;21.20;;;5.60;99.90;;;;;;5026832;28;20227;-84
2022/01/13 06:32:37;;;;;;;53.07;20.80;;;5.60;99.90;;;;;;5028119;28;20194;-85
2022/01/13 06:35:04;;;;;;;53.30;21.10;;;5.60;99.90;;;;;;5025177;28;20186;-84
2022/01/13 06:37:30;;;;;;;54.33;21.07;;;5.70;99.90;;;;;;5025774;28;20206;-84
2022/01/13 06:39:56;;;;;;;57.30;21.23;;;5.60;99.90;;;;;;5043182;28;20760;-86
2022/01/13 06:42:21;;;;;;;48.27;20.63;;;5.70;99.90;;;;;;5030402;28;20195;-85
2022/01/13 06:44:47;;;;;;;49.00;20.47;;;5.70;99.90;;;;;;5024231;28;20188;-84
2022/01/13 06:47:13;;;;;;;53.47;20.83;;;5.70;99.90;;;;;;5026528;28;20245;-85
2022/01/13 06:49:39;;;;;;;53.97;20.37;;;5.70;99.90;;;;;;5027824;28;20193;-84
2022/01/13 06:52:06;;;;;;;49.23;19.33;;;5.70;99.90;;;;;;5026042;28;20213;-85
2022/01/13 06:54:34;;;;;;;52.63;20.37;;;5.80;99.90;;;;;;5035500;28;20204;-84
2022/01/13 06:57:00;;;;;;;42.07;19.97;;;5.80;99.90;;;;;;5017998;28;20197;-86
2022/01/13 06:59:26;;;;;;;51.57;20.13;;;5.80;99.90;;;;;;5030304;28;20268;-86
2022/01/13 07:01:52;;;;;;;43.53;19.17;;;5.80;99.90;;;;;;5041278;28;20198;-84
2022/01/13 07:04:21;;;;;;;50.53;19.27;;;5.80;99.90;;;;;;5024855;28;20176;-86
2022/01/13 07:06:46;;;;;;;44.70;19.00;;;5.80;99.90;;;;;;5026503;28;20242;-87
2022/01/13 07:09:14;;;;;;;43.87;19.23;;;5.80;99.90;;;;;;5041280;28;20181;-84
2022/01/13 07:11:41;;;;;;;40.93;18.10;;;5.80;99.90;;;;;;5026413;28;20212;-84
2022/01/13 07:14:08;;;;;;;41.77;19.50;;;5.80;99.90;;;;;;5032941;28;20189;-84
2022/01/13 07:16:35;;;;;;;41.47;19.40;;;5.80;99.90;;;;;;5028282;28;20190;-84
2022/01/13 07:19:03;;;;;;;43.43;19.17;;;5.80;99.90;;;;;;5027958;28;20210;-84
2022/01/13 07:21:29;;;;;;;40.40;17.57;;;5.80;99.90;;;;;;5037001;28;20210;-85
2022/01/13 07:23:55;;;;;;;44.50;18.83;;;5.80;99.90;;;;;;5024157;28;20238;-85
2022/01/13 07:26:22;;;;;;;40.33;18.57;;;5.80;99.90;;;;;;5019038;28;20187;-85
2022/01/13 07:28:48;;;;;;;43.23;18.43;;;5.80;99.90;;;;;;5030120;28;20206;-87
2022/01/13 07:31:20;;;;;;;42.13;18.17;;;5.80;99.90;;;;;;5030661;28;20231;-85
2022/01/13 07:33:47;;;;;;;44.93;19.00;;;5.80;99.90;;;;;;5018778;28;20177;-85
2022/01/13 07:36:14;;;;;;;40.83;19.27;;;5.80;99.90;;;;;;5032227;28;20173;-85
2022/01/13 07:38:40;;;;;;;39.10;17.83;;;5.90;99.90;;;;;;5033807;28;20207;-85
2022/01/13 07:41:06;;;;;;;40.13;17.90;;;5.90;99.90;;;;;;5028700;28;20204;-85
2022/01/13 07:43:32;;;;;;;42.57;18.10;;;5.90;99.90;;;;;;5021383;28;20177;-85
2022/01/13 07:45:58;;;;;;;44.77;18.23;;;5.90;99.90;;;;;;5018338;28;20183;-85
2022/01/13 07:48:24;;;;;;;44.40;18.63;;;5.90;99.90;;;;;;5020325;28;20178;-86
2022/01/13 07:50:51;;;;;;;38.83;17.70;;;5.80;99.90;;;;;;5026353;28;20199;-86
2022/01/13 07:53:17;;;;;;;40.77;18.57;;;5.80;99.90;;;;;;5015663;28;20244;-85
2022/01/13 07:55:43;;;;;;;38.83;17.70;;;5.80;99.90;;;;;;5015405;28;20179;-86
2022/01/13 07:58:10;;;;;;;43.80;18.93;;;5.90;99.90;;;;;;5014550;28;20515;-85
2022/01/13 08:00:36;;;;;;;41.30;17.43;;;5.90;99.90;;;;;;5015114;28;20183;-85
2022/01/13 08:03:04;;;;;;;34.83;17.70;;;5.80;99.90;;;;;;5011480;28;20188;-85
2022/01/13 08:05:30;;;;;;;40.67;18.27;;;5.80;99.90;;;;;;5015914;28;20253;-85
2022/01/13 08:07:58;;;;;;;39.87;18.50;;;5.80;99.90;;;;;;5019006;28;20253;-83
2022/01/13 08:10:23;;;;;;;41.30;18.60;;;5.80;99.90;;;;;;5025226;28;20176;-85
2022/01/13 08:12:49;;;;;;;40.90;17.70;;;5.90;99.90;;;;;;5030828;23;20230;-78
2022/01/13 08:15:15;;;;;;;40.37;18.43;;;5.90;99.90;;;;;;5029630;28;20227;-78
2022/01/13 08:20:29;;;;;;;36.73;18.23;;;5.90;99.90;;;;;;5030928;28;20166;-78
2022/01/13 08:22:55;;;;;;;38.63;17.53;;;5.90;99.90;;;;;;5002394;28;20228;-78
2022/01/13 08:25:27;;;;;;;38.10;19.30;;;5.80;99.90;;;;;;4987398;28;20242;-78
2022/01/13 08:27:55;;;;;;;37.80;18.23;;;5.80;99.90;;;;;;4989913;28;20246;-78
2022/01/13 08:30:22;;;;;;;35.07;16.60;;;5.80;99.90;;;;;;4988606;28;20308;-78
2022/01/13 08:32:48;;;;;;;34.60;17.77;;;5.80;99.90;;;;;;5006338;28;20202;-77
2022/01/13 08:35:14;;;;;;;40.20;18.03;;;5.80;99.90;;;;;;4990917;28;20180;-77
2022/01/13 08:37:41;;;;;;;40.10;19.07;;;5.80;99.90;;;;;;4983391;28;20617;-77
2022/01/13 08:40:09;;;;;;;40.70;18.57;;;5.80;99.90;;;;;;5009837;28;20187;-78
2022/01/13 08:42:39;;;;;;;40.47;19.03;;;5.80;99.90;;;;;;4988069;28;20200;-78
2022/01/13 08:45:08;;;;;;;42.37;19.30;;;5.70;99.90;;;;;;4982529;28;20267;-78
2022/01/13 08:47:34;;;;;;;40.70;19.77;;;5.80;99.90;;;;;;5006025;28;20183;-77
2022/01/13 08:49:59;;;;;;;42.27;21.47;;;5.70;99.90;;;;;;4984538;28;20172;-78
2022/01/13 08:52:26;;;;;;;45.70;21.40;;;5.60;99.90;;;;;;5000599;28;20190;-77
2022/01/13 08:54:55;;;;;;;48.20;21.43;;;5.60;99.90;;;;;;5016712;28;20166;-78
2022/01/13 08:57:21;;;;;;;50.33;21.03;;;5.60;99.90;;;;;;4989056;28;20194;-78
2022/01/13 08:59:47;;;;;;;43.37;20.70;;;5.60;99.90;;;;;;4984665;28;20294;-78
2022/01/13 09:02:13;;;;;;;43.67;21.10;;;5.50;99.90;;;;;;4985365;28;20286;-78
2022/01/13 09:04:39;;;;;;;44.50;22.10;;;5.50;99.90;;;;;;4985643;28;20186;-78
2022/01/13 09:07:10;;;;;;;44.30;21.57;;;5.50;99.90;;;;;;5000431;28;20183;-78
2022/01/13 09:09:45;;;;;;;45.30;21.93;;;5.50;99.90;;;;;;5003634;28;20176;-78
2022/01/13 09:12:11;;;;;;;50.37;23.27;;;5.50;99.90;;;;;;4980331;28;20214;-76
2022/01/13 09:14:39;;;;;;;46.90;22.20;;;5.40;99.90;;;;;;4986477;28;20306;-78
2022/01/13 09:17:12;;;;;;;50.47;22.97;;;5.40;99.90;;;;;;5009133;28;20190;-78
2022/01/13 09:19:43;;;;;;;49.23;22.60;;;5.40;99.90;;;;;;4991217;28;20198;-78
2022/01/13 09:22:08;;;;;;;50.13;21.60;;;5.40;99.90;;;;;;5010684;28;20191;-77
2022/01/13 09:24:41;;;;;;;44.07;21.17;;;5.50;99.90;;;;;;4991680;28;20263;-78
2022/01/13 09:27:09;;;;;;;44.27;21.17;;;5.50;99.90;;;;;;5004109;28;20223;-78
2022/01/13 09:29:35;;;;;;;41.37;20.90;;;5.50;99.90;;;;;;5021879;28;20183;-77
2022/01/13 09:32:02;;;;;;;46.67;22.07;;;5.40;99.90;;;;;;4991014;28;20211;-77
2022/01/13 09:34:28;;;;;;;42.13;19.60;;;5.50;99.90;;;;;;5008548;28;20182;-77
2022/01/13 09:36:54;;;;;;;45.83;20.73;;;5.50;99.90;;;;;;5007604;28;20189;-78
2022/01/13 09:39:23;;;;;;;46.03;21.47;;;5.40;99.90;;;;;;4990542;28;20198;-77
2022/01/13 09:41:51;;;;;;;39.13;19.37;;;5.50;99.90;;;;;;5019168;28;20205;-78
2022/01/13 09:44:17;;;;;;;44.20;19.67;;;5.50;99.90;;;;;;5022214;28;20218;-79
2022/01/13 09:46:44;;;;;;;40.23;19.03;;;5.50;99.90;;;;;;5005178;28;20192;-78
2022/01/13 09:49:10;;;;;;;36.53;19.47;;;5.50;99.90;;;;;;4989799;28;20177;-79
2022/01/13 09:51:45;;;;;;;39.77;20.50;;;5.50;99.90;;;;;;4989779;28;20180;-78
2022/01/13 09:54:11;;;;;;;40.53;19.93;;;5.60;99.90;;;;;;5008522;28;20191;-78
2022/01/13 09:56:38;;;;;;;34.63;18.23;;;5.50;99.90;;;;;;4992841;28;20183;-78
2022/01/13 09:59:05;;;;;;;36.27;17.20;;;5.60;99.90;;;;;;4988380;28;20282;-78
2022/01/13 10:01:31;;;;;;;38.63;18.33;;;5.60;99.90;;;;;;5019589;28;20954;-78
2022/01/13 10:03:57;;;;;;;36.93;18.00;;;5.60;99.90;;;;;;4997110;28;20281;-79
2022/01/13 10:06:22;;;;;;;39.10;18.37;;;5.60;99.90;;;;;;4998602;28;20173;-78
2022/01/13 10:08:58;;;;;;;31.63;17.40;;;5.70;99.90;;;;;;4987918;28;20178;-78
2022/01/13 10:11:33;;;;;;;33.10;17.23;;;5.70;99.90;;;;;;4993405;28;20168;-78
2022/01/13 10:16:54;;;;;;;32.47;16.90;;;5.70;99.90;;;;;;4998695;28;20199;-78
2022/01/13 10:19:33;;;;;;;31.97;17.53;;;5.80;99.90;;;;;;4999213;28;20193;-79
2022/01/13 10:22:14;;;;;;;33.60;18.33;;;5.80;99.90;;;;;;4995418;28;20201;-78
2022/01/13 10:24:45;;;;;;;32.67;18.43;;;5.90;99.90;;;;;;5011703;28;20516;-77
2022/01/13 10:27:27;;;;;;;35.63;17.67;;;5.90;99.90;;;;;;4991328;28;20695;-78
2022/01/13 10:29:59;;;;;;;36.77;17.80;;;6.00;99.90;;;;;;4993788;28;20188;-77
2022/01/13 10:32:44;;;;;;;32.90;18.20;;;5.90;99.90;;;;;;5002684;28;20264;-79
2022/01/13 10:35:15;;;;;;;34.53;18.17;;;5.90;99.90;;;;;;4997460;28;20183;-78
2022/01/13 10:37:57;;;;;;;34.90;17.67;;;5.90;99.90;;;;;;5019378;28;20213;-77
2022/01/13 10:40:27;;;;;;;41.17;18.33;;;6.00;99.90;;;;;;5010792;28;20251;-77
2022/01/13 10:43:08;;;;;;;35.43;17.50;;;5.90;99.90;;;;;;5010125;28;20194;-78
2022/01/13 10:45:35;;;;;;;38.07;17.83;;;5.80;99.90;;;;;;4981511;28;20179;-77
2022/01/13 10:48:21;;;;;;;37.07;17.33;;;5.80;99.90;;;;;;4979912;28;20542;-78
2022/01/13 10:50:54;;;;;;;39.23;17.43;;;5.70;99.90;;;;;;4980004;28;20653;-78
2022/01/13 10:53:28;;;;;;;32.17;16.43;;;5.70;99.90;;;;;;5007555;28;20207;-78
2022/01/13 10:55:57;;;;;;;36.83;17.80;;;5.70;99.90;;;;;;4995381;28;20167;-78
2022/01/13 10:58:25;;;;;;;35.80;17.73;;;5.60;99.90;;;;;;4994987;28;20273;-77
2022/01/13 11:00:52;;;;;;;36.20;17.50;;;5.70;99.90;;;;;;4995410;28;20239;-77
2022/01/13 11:03:22;;;;;;;40.90;17.87;;;5.60;99.90;;;;;;4995286;28;20613;-78
2022/01/13 11:05:59;;;;;;;32.80;16.90;;;5.70;99.90;;;;;;5010361;28;20268;-78
2022/01/13 11:08:32;;;;;;;38.00;17.73;;;5.70;99.90;;;;;;5014528;28;20230;-78
2022/01/13 11:11:00;;;;;;;38.07;17.83;;;5.70;99.90;;;;;;5008331;28;20196;-77
2022/01/13 11:13:53;;;;;;;35.53;17.43;;;5.70;99.90;;;;;;5004504;28;20218;-78
2022/01/13 11:20:04;;;;;;;37.87;17.67;;;5.70;99.90;;;;;;5004347;28;20214;-77
2022/01/13 11:22:44;;;;;;;38.20;17.53;;;5.70;99.90;;;;;;4983230;28;20208;-77
2022/01/13 11:25:11;;;;;;;38.17;17.60;;;5.70;99.90;;;;;;5016280;28;20290;-77
2022/01/13 11:27:39;;;;;;;36.50;18.60;;;5.70;99.90;;;;;;5010061;28;20266;-78
2022/01/13 11:30:26;;;;;;;38.77;17.50;;;5.70;99.90;;;;;;5006174;28;20174;-78
2022/01/13 11:32:56;;;;;;;40.60;17.90;;;5.70;99.90;;;;;;5000202;28;20203;-78
2022/01/13 11:35:28;;;;;;;37.60;17.60;;;5.70;99.90;;;;;;4986290;28;20242;-78
2022/01/13 11:38:04;;;;;;;38.80;18.77;;;5.70;99.90;;;;;;5002667;28;20584;-77
2022/01/13 11:40:36;;;;;;;34.27;17.10;;;5.70;99.90;;;;;;5015865;28;20189;-78
2022/01/13 11:43:21;;;;;;;39.63;17.67;;;5.70;99.90;;;;;;4989599;28;20579;-78
2022/01/13 11:45:47;;;;;;;36.10;16.90;;;5.70;99.90;;;;;;4985792;28;20262;-77
2022/01/13 11:48:21;;;;;;;31.03;16.23;;;5.70;99.90;;;;;;4992101;28;20175;-76
2022/01/13 11:50:52;;;;;;;32.27;16.10;;;5.80;99.90;;;;;;5001639;28;20215;-78
2022/01/13 11:53:18;;;;;;;31.87;16.20;;;5.80;99.90;;;;;;4985649;28;20288;-77
2022/01/13 11:55:51;;;;;;;38.97;16.93;;;5.80;99.90;;;;;;4991707;28;20178;-78
2022/01/13 11:58:32;;;;;;;32.30;16.67;;;5.90;99.90;;;;;;4993885;28;20231;-77
2022/01/13 12:01:10;;;;;;;36.67;16.40;;;5.80;99.90;;;;;;5006741;28;20688;-78
2022/01/13 12:03:41;;;;;;;34.93;17.57;;;5.80;99.90;;;;;;5010896;28;20192;-77
2022/01/13 12:06:07;;;;;;;36.67;17.27;;;5.80;99.90;;;;;;4986010;28;20188;-77
2022/01/13 12:08:57;;;;;;;34.60;16.37;;;5.80;99.90;;;;;;4987746;28;20184;-77
2022/01/13 12:11:55;;;;;;;38.07;17.17;;;5.90;99.90;;;;;;5007664;28;20180;-76
2022/01/13 12:14:24;;;;;;;32.87;15.67;;;5.90;99.90;;;;;;5008262;28;20184;-77
2022/01/13 12:16:55;;;;;;;26.93;14.80;;;5.90;99.90;;;;;;4985504;28;20193;-78
2022/01/13 12:19:38;;;;;;;30.67;15.97;;;6.00;99.90;;;;;;5002065;28;20199;-77
2022/01/13 12:22:14;;;;;;;32.27;15.23;;;5.90;99.90;;;;;;5001753;28;20204;-77
2022/01/13 12:24:56;;;;;;;32.87;16.60;;;5.90;99.90;;;;;;4983962;28;20177;-78
2022/01/13 12:27:42;;;;;;;35.07;16.53;;;5.90;99.90;;;;;;4986120;28;20183;-78
2022/01/13 12:30:29;;;;;;;35.43;16.50;;;5.90;99.90;;;;;;4984353;28;20171;-78
2022/01/13 12:33:03;;;;;;;36.07;16.83;;;5.90;99.90;;;;;;5009173;28;20193;-77
2022/01/13 12:35:43;;;;;;;32.07;15.90;;;5.90;99.90;;;;;;4985548;28;20185;-78
2022/01/13 12:38:16;;;;;;;38.40;17.50;;;5.90;99.90;;;;;;5012738;28;20199;-77
2022/01/13 12:41:00;;;;;;;33.63;16.57;;;5.80;99.90;;;;;;4987632;28;20207;-77
2022/01/13 12:46:11;;;;;;;38.93;17.40;;;5.80;99.90;;;;;;5020447;28;20210;-78
2022/01/13 12:48:44;;;;;;;38.80;17.93;;;5.90;99.90;;;;;;5018281;28;20169;-78
2022/01/13 12:51:15;;;;;;;38.30;18.07;;;5.90;99.90;;;;;;4981156;28;20259;-77
2022/01/13 12:53:53;;;;;;;40.17;18.00;;;5.90;99.90;;;;;;4987669;28;20196;-77
2022/01/13 12:56:27;;;;;;;37.10;17.57;;;5.80;99.90;;;;;;5008745;28;20547;-77
2022/01/13 12:58:56;;;;;;;36.57;18.07;;;5.90;99.90;;;;;;4983640;28;20203;-79
2022/01/13 13:01:27;;;;;;;39.10;18.37;;;5.90;99.90;;;;;;4982079;28;20176;-78
2022/01/13 13:04:02;;;;;;;44.93;20.40;;;5.90;99.90;;;;;;5005138;28;20554;-78
2022/01/13 13:06:28;;;;;;;42.43;19.77;;;5.90;99.90;;;;;;5012493;28;20235;-78
2022/01/13 13:09:09;;;;;;;46.43;20.53;;;5.80;99.90;;;;;;5000613;28;20243;-78
2022/01/13 13:11:39;;;;;;;46.40;20.03;;;5.80;99.90;;;;;;5024851;28;20184;-75
2022/01/13 13:14:17;;;;;;;45.47;19.70;;;5.80;99.90;;;;;;4991942;28;20205;-76
2022/01/13 13:16:49;;;;;;;44.73;19.77;;;5.90;99.90;;;;;;4988194;28;20181;-76
2022/01/13 13:19:40;;;;;;;44.67;20.07;;;5.90;99.90;;;;;;4988085;28;20296;-77
2022/01/13 13:22:10;;;;;;;49.37;20.43;;;5.90;99.90;;;;;;4992456;28;20212;-76